Airfield :
LOGIN :

Register | Disclaimer

   EN    FR    IT 

 










Legend :    VFR   Marginal VFR   IFR   Intensive IFR   Very Intensive IFR
Visi :
Ceiling :
>= 8 km
>= 3000ft
5 to 8 km
1000 to 3000 ft
1500m to 5 km
500 to 1000 ft
800 to 1500m
200 to 500 ft
< 800m
< 200 ft
Symbols :   Thunderstorms  Fog  Heavy snow  Heavy precipitations  Wind > 20 kt
SIGMETs :     Misc.  Thunderstorms  Icing  Turbulence  Mountain Waves  Volcanic Ashes






- Airport Elevation : 1017 ft


LFSL - Brive Souillac

CURRENT METAR :
  • 011230Z AUTO 34007KT 300V020 9999 FEW021 SCT038 09/05 Q1031 NOSIG

EXPIRED METARs :
  • 011200Z AUTO VRB01KT 9999 SCT037 08/04 Q1032 NOSIG
  • 011130Z AUTO 30003KT 250V350 9999 OVC038 08/05 Q1032 NOSIG
  • 011100Z AUTO VRB03KT 9999 OVC038 07/05 Q1032 NOSIG
  • 011030Z AUTO VRB02KT 9999 OVC035 06/04 Q1033 NOSIG
  • 011000Z AUTO 35005KT 9999 OVC034 06/05 Q1033 TEMPO 1500 BR BKN002

TAF TAF LFSL
Valid from the 01 at 12:00 until the 01 at 21:00 UTC


011100Z 0112/0121 VRB02KT 9999 BKN035



MET'MAP, your aeronautical weather chart ! - Copyright ORBIFLY December 2007 - Disclaimer

ORBIFLY MET'MAP TEAM :

Programming & Development : Alexandra Zaïnal
Original concept : Baudouin d'Aumeries
Technical & hardware support : Manuel Goepfert
Assistance : Marc-Olivier Méhu




SOURCES & CREDITS :

   NOAA